Time;durP1;ratioP1;P1;durP2;ratioP2;P2;SDS_P1;SDS_P2;PMS_P1;PMS_P2;Temp;Humidity;BMP_temperature;BMP_pressure;BME280_temperature;BME280_humidity;BME280_pressure;Samples;Min_cycle;Max_cycle;Signal;HPM_P1;HPM_P2
2022/08/19 00:01:53;;;;;;;;;;;16.30;99.90;;;;;;5053703;28;19908;-68
2022/08/19 00:04:24;;;;;;;;;;;16.20;99.90;;;;;;5043902;28;20008;-69
2022/08/19 00:06:50;;;;;;;;;;;16.20;99.90;;;;;;5033809;28;19912;-68
2022/08/19 00:09:17;;;;;;;;;;;16.10;99.90;;;;;;5036421;28;19951;-69
2022/08/19 00:11:43;;;;;;;;;;;16.10;99.90;;;;;;5037457;28;20372;-69
2022/08/19 00:14:10;;;;;;;;;;;16.00;99.90;;;;;;5055538;28;20365;-69
2022/08/19 00:16:36;;;;;;;;;;;16.00;99.90;;;;;;5057343;28;19908;-69
2022/08/19 00:19:02;;;;;;;;;;;16.00;99.90;;;;;;5058064;28;19992;-69
2022/08/19 00:21:27;;;;;;;;;;;15.90;99.90;;;;;;5057247;28;19970;-69
2022/08/19 00:23:53;;;;;;;;;;;15.90;99.90;;;;;;5057148;28;20451;-69
2022/08/19 00:26:19;;;;;;;;;;;15.90;99.90;;;;;;5057115;28;19915;-69
2022/08/19 00:28:45;;;;;;;;;;;16.00;99.90;;;;;;5056445;28;19959;-70
2022/08/19 00:31:10;;;;;;;;;;;16.00;99.90;;;;;;5056273;28;20058;-69
2022/08/19 00:33:36;;;;;;;;;;;16.00;99.90;;;;;;5057520;28;19911;-69
2022/08/19 00:36:04;;;;;;;;;;;16.00;99.90;;;;;;5057321;28;20337;-69
2022/08/19 00:38:30;;;;;;;;;;;16.00;99.90;;;;;;5056847;28;19911;-69
2022/08/19 00:40:55;;;;;;;;;;;16.00;99.90;;;;;;5056917;28;19905;-69
2022/08/19 00:43:22;;;;;;;;;;;16.00;99.90;;;;;;5056997;28;20298;-69
2022/08/19 00:45:49;;;;;;;;;;;16.00;99.90;;;;;;5055613;28;19963;-70
2022/08/19 00:48:16;;;;;;;;;;;16.10;99.90;;;;;;5056853;28;20281;-70
2022/08/19 00:50:42;;;;;;;;;;;16.10;99.90;;;;;;5056932;28;19911;-69
2022/08/19 00:53:09;;;;;;;;;;;16.10;99.90;;;;;;5056582;28;19954;-70
2022/08/19 00:55:34;;;;;;;;;;;16.10;99.90;;;;;;5056587;28;19911;-69
2022/08/19 00:58:06;;;;;;;;;;;16.10;99.90;;;;;;5056447;28;19909;-69
2022/08/19 01:00:35;;;;;;;;;;;16.10;99.90;;;;;;5056564;28;19911;-69
2022/08/19 01:03:00;;;;;;;;;;;16.10;99.90;;;;;;5055473;28;19951;-69
2022/08/19 01:05:27;;;;;;;;;;;16.10;99.90;;;;;;5056150;28;19943;-70
2022/08/19 01:07:53;;;;;;;;;;;16.20;99.90;;;;;;5056428;28;20265;-69
2022/08/19 01:10:21;;;;;;;;;;;16.20;99.90;;;;;;5056680;28;20406;-69
2022/08/19 01:12:48;;;;;;;;;;;16.20;99.90;;;;;;5056898;28;19912;-69
2022/08/19 01:15:16;;;;;;;;;;;16.20;99.90;;;;;;5056708;28;19912;-69
2022/08/19 01:17:41;;;;;;;;;;;16.10;99.90;;;;;;5055435;28;19912;-70
2022/08/19 01:20:10;;;;;;;;;;;16.20;99.90;;;;;;5054853;28;19905;-70
2022/08/19 01:22:39;;;;;;;;;;;16.10;99.90;;;;;;5056467;28;19958;-69
2022/08/19 01:25:06;;;;;;;;;;;16.20;99.90;;;;;;5056007;28;19955;-70
2022/08/19 01:27:38;;;;;;;;;;;16.20;99.90;;;;;;5056027;28;19908;-69
2022/08/19 01:30:05;;;;;;;;;;;16.20;99.90;;;;;;5056316;28;20276;-69
2022/08/19 01:32:31;;;;;;;;;;;16.20;99.90;;;;;;5056091;28;20003;-69
2022/08/19 01:34:56;;;;;;;;;;;16.20;99.90;;;;;;5055172;28;20372;-70
2022/08/19 01:37:21;;;;;;;;;;;16.30;99.90;;;;;;5055708;28;19911;-70
2022/08/19 01:39:47;;;;;;;;;;;16.20;99.90;;;;;;5053622;28;20098;-70
2022/08/19 01:42:13;;;;;;;;;;;16.30;99.90;;;;;;5055578;28;19912;-70
2022/08/19 01:44:40;;;;;;;;;;;16.30;99.90;;;;;;5080914;23;19927;-71
2022/08/19 01:47:06;;;;;;;;;;;16.30;99.90;;;;;;5075304;28;20000;-69
2022/08/19 01:49:31;;;;;;;;;;;16.30;99.90;;;;;;5068711;28;19912;-69
2022/08/19 01:51:58;;;;;;;;;;;16.30;99.90;;;;;;5055365;28;20089;-69
2022/08/19 01:54:24;;;;;;;;;;;16.30;99.90;;;;;;5055172;28;20421;-69
2022/08/19 01:56:51;;;;;;;;;;;16.30;99.90;;;;;;5055269;28;19905;-69
2022/08/19 01:59:18;;;;;;;;;;;16.30;99.90;;;;;;5040439;28;19941;-69
2022/08/19 02:01:43;;;;;;;;;;;16.40;99.90;;;;;;5033829;28;19905;-69
2022/08/19 02:04:09;;;;;;;;;;;16.30;99.90;;;;;;5035517;28;19909;-68
2022/08/19 02:06:35;;;;;;;;;;;16.30;99.90;;;;;;5055599;28;19928;-68
2022/08/19 02:09:00;;;;;;;;;;;16.40;99.90;;;;;;5055281;28;19912;-69
2022/08/19 02:11:28;;;;;;;;;;;16.50;99.90;;;;;;5054822;28;20253;-70
2022/08/19 02:13:54;;;;;;;;;;;16.50;99.90;;;;;;5054892;28;19952;-70
2022/08/19 02:16:19;;;;;;;;;;;16.50;99.90;;;;;;5054928;28;20264;-69
2022/08/19 02:18:46;;;;;;;;;;;16.50;99.90;;;;;;5054793;28;19914;-70
2022/08/19 02:21:13;;;;;;;;;;;16.40;99.90;;;;;;5052508;28;20058;-69
2022/08/19 02:23:38;;;;;;;;;;;16.40;99.90;;;;;;5054719;28;19924;-69
2022/08/19 02:26:04;;;;;;;;;;;16.50;99.90;;;;;;5044809;28;19909;-69
2022/08/19 02:28:29;;;;;;;;;;;16.50;99.90;;;;;;5034696;28;19992;-69
2022/08/19 02:30:54;;;;;;;;;;;16.50;99.90;;;;;;5033946;28;19944;-69
2022/08/19 02:33:20;;;;;;;;;;;16.50;99.90;;;;;;5034649;28;19912;-69
2022/08/19 02:35:46;;;;;;;;;;;16.50;99.90;;;;;;5034506;28;20374;-69
2022/08/19 02:38:27;;;;;;;;;;;16.60;99.90;;;;;;5045745;28;19916;-69
2022/08/19 02:40:55;;;;;;;;;;;16.70;99.90;;;;;;5054422;28;19912;-69
2022/08/19 02:43:21;;;;;;;;;;;16.70;99.90;;;;;;5054601;28;20007;-70
2022/08/19 02:45:48;;;;;;;;;;;16.70;99.90;;;;;;5054055;28;19935;-69
2022/08/19 02:48:17;;;;;;;;;;;16.70;99.90;;;;;;5054277;28;19908;-70
2022/08/19 02:50:42;;;;;;;;;;;16.60;99.90;;;;;;5054324;28;19936;-69
2022/08/19 02:53:08;;;;;;;;;;;16.60;99.90;;;;;;5052701;28;19944;-70
2022/08/19 02:55:34;;;;;;;;;;;16.60;99.90;;;;;;5054112;28;20007;-68
2022/08/19 02:57:59;;;;;;;;;;;16.60;99.90;;;;;;5054125;28;19951;-68
2022/08/19 03:00:26;;;;;;;;;;;16.60;99.90;;;;;;5054312;28;20436;-69
2022/08/19 03:02:52;;;;;;;;;;;16.60;99.90;;;;;;5054324;28;19944;-69
2022/08/19 03:05:17;;;;;;;;;;;16.60;99.90;;;;;;5051305;28;19916;-68
2022/08/19 03:07:43;;;;;;;;;;;16.70;99.90;;;;;;5053852;28;19981;-69
2022/08/19 03:10:08;;;;;;;;;;;16.60;99.90;;;;;;5053972;28;19951;-69
2022/08/19 03:12:37;;;;;;;;;;;16.50;99.90;;;;;;5054206;28;19905;-69
2022/08/19 03:15:05;;;;;;;;;;;16.50;99.90;;;;;;5053779;28;19905;-69
2022/08/19 03:17:30;;;;;;;;;;;16.40;99.90;;;;;;5054119;28;19905;-69
2022/08/19 03:19:56;;;;;;;;;;;16.40;99.90;;;;;;5051986;28;19908;-69
2022/08/19 03:22:21;;;;;;;;;;;16.40;99.90;;;;;;5053742;28;19904;-69
2022/08/19 03:24:47;;;;;;;;;;;16.40;99.90;;;;;;5054258;28;19992;-70
2022/08/19 03:27:13;;;;;;;;;;;16.30;99.90;;;;;;5053687;28;20383;-69
2022/08/19 03:29:39;;;;;;;;;;;16.40;99.90;;;;;;5052431;28;19905;-69
2022/08/19 03:32:05;;;;;;;;;;;16.50;99.90;;;;;;5053705;28;19914;-68
2022/08/19 03:34:32;;;;;;;;;;;16.50;99.90;;;;;;5051726;28;20008;-69
2022/08/19 03:37:00;;;;;;;;;;;16.50;99.90;;;;;;5053929;28;20280;-68
2022/08/19 03:39:26;;;;;;;;;;;16.50;99.90;;;;;;5053954;28;19912;-68
2022/08/19 03:41:52;;;;;;;;;;;16.40;99.90;;;;;;5053956;28;19905;-68
2022/08/19 03:44:20;;;;;;;;;;;16.30;99.90;;;;;;5057572;28;19909;-68
2022/08/19 03:46:47;;;;;;;;;;;16.40;99.90;;;;;;5057701;28;19905;-68
2022/08/19 03:49:12;;;;;;;;;;;16.40;99.90;;;;;;5055875;28;19908;-68
2022/08/19 03:51:38;;;;;;;;;;;16.30;99.90;;;;;;5057596;28;20268;-68
2022/08/19 03:54:05;;;;;;;;;;;16.40;99.90;;;;;;5057552;28;19911;-68
2022/08/19 03:56:30;;;;;;;;;;;16.40;99.90;;;;;;5057786;28;19912;-68
2022/08/19 03:58:57;;;;;;;;;;;16.40;99.90;;;;;;5057742;28;19905;-68
2022/08/19 04:01:23;;;;;;;;;;;16.40;99.90;;;;;;5055113;28;20267;-68
2022/08/19 04:03:49;;;;;;;;;;;16.40;99.90;;;;;;5054237;28;19909;-68
2022/08/19 04:06:41;;;;;;;;;;;16.40;99.90;;;;;;5057774;28;20272;-68
2022/08/19 04:09:08;;;;;;;;;;;16.40;99.90;;;;;;5027897;28;19910;-69
2022/08/19 04:11:35;;;;;;;;;;;16.50;99.90;;;;;;5017534;28;19905;-69
2022/08/19 04:14:01;;;;;;;;;;;16.50;99.90;;;;;;5017523;28;19959;-70
2022/08/19 04:16:28;;;;;;;;;;;16.40;99.90;;;;;;5023763;28;19909;-69
2022/08/19 04:18:54;;;;;;;;;;;16.50;99.90;;;;;;5037480;28;19906;-69
2022/08/19 04:21:21;;;;;;;;;;;16.50;99.90;;;;;;5037140;28;19904;-69
2022/08/19 04:23:47;;;;;;;;;;;16.50;99.90;;;;;;5037368;28;20000;-69
2022/08/19 04:26:23;;;;;;;;;;;16.50;99.90;;;;;;5031587;28;20009;-69
2022/08/19 04:28:48;;;;;;;;;;;16.60;99.90;;;;;;5037184;28;20371;-69
2022/08/19 04:31:19;;;;;;;;;;;16.60;99.90;;;;;;5035865;28;19908;-69
2022/08/19 04:33:45;;;;;;;;;;;16.60;99.90;;;;;;5041387;28;19916;-69
2022/08/19 04:36:20;;;;;;;;;;;16.70;99.90;;;;;;5056689;28;19904;-69
2022/08/19 04:38:47;;;;;;;;;;;16.70;99.90;;;;;;5056714;28;19992;-69
2022/08/19 04:43:56;;;;;;;;;;;16.70;99.90;;;;;;5056554;28;20439;-69
2022/08/19 04:46:22;;;;;;;;;;;16.60;99.90;;;;;;5036554;28;20008;-69
2022/08/19 04:48:47;;;;;;;;;;;16.70;99.90;;;;;;5044439;28;20395;-69
2022/08/19 04:51:13;;;;;;;;;;;16.70;99.90;;;;;;5056746;28;19908;-69
2022/08/19 04:53:39;;;;;;;;;;;16.60;99.90;;;;;;5055690;28;19904;-69
2022/08/19 04:56:07;;;;;;;;;;;16.60;99.90;;;;;;5023515;28;19909;-69
2022/08/19 04:58:33;;;;;;;;;;;16.60;99.90;;;;;;5017552;28;20265;-69
2022/08/19 05:00:59;;;;;;;;;;;16.60;99.90;;;;;;5031022;28;19915;-68
2022/08/19 05:03:25;;;;;;;;;;;16.70;99.90;;;;;;5036858;28;19947;-68
2022/08/19 05:05:51;;;;;;;;;;;16.70;99.90;;;;;;5036180;28;19963;-68
2022/08/19 05:08:21;;;;;;;;;;;16.70;99.90;;;;;;5036463;28;19959;-68
2022/08/19 05:10:51;;;;;;;;;;;16.80;99.90;;;;;;5036236;28;20404;-69
2022/08/19 05:13:17;;;;;;;;;;;16.80;99.90;;;;;;5036179;28;19956;-69
2022/08/19 05:15:43;;;;;;;;;;;16.80;99.90;;;;;;5033988;28;19913;-69
2022/08/19 05:23:37;;;;;;;;;;;16.80;99.90;;;;;;5055953;28;19948;-70
2022/08/19 05:26:03;;;;;;;;;;;16.80;99.90;;;;;;5055528;28;19959;-69
2022/08/19 05:28:29;;;;;;;;;;;16.80;99.90;;;;;;5055834;28;19928;-70
2022/08/19 05:30:55;;;;;;;;;;;16.80;99.90;;;;;;5049882;28;19912;-70
2022/08/19 05:33:21;;;;;;;;;;;16.90;99.90;;;;;;5052426;28;20417;-69
2022/08/19 05:35:48;;;;;;;;;;;16.90;99.90;;;;;;5055516;28;19905;-69
2022/08/19 05:38:13;;;;;;;;;;;16.80;99.90;;;;;;5052998;28;19999;-68
2022/08/19 05:40:39;;;;;;;;;;;16.80;99.90;;;;;;5038822;28;19995;-68
2022/08/19 05:43:05;;;;;;;;;;;16.90;99.90;;;;;;5039832;28;20376;-68
2022/08/19 05:45:31;;;;;;;;;;;17.00;99.90;;;;;;5039583;28;19913;-69
2022/08/19 05:47:57;;;;;;;;;;;17.00;99.90;;;;;;5055316;28;20408;-69
2022/08/19 05:50:22;;;;;;;;;;;16.90;99.90;;;;;;5037144;28;19909;-69
2022/08/19 05:52:48;;;;;;;;;;;17.00;99.90;;;;;;5051092;28;19959;-68
2022/08/19 05:55:13;;;;;;;;;;;17.00;99.90;;;;;;5052840;28;20380;-68
2022/08/19 05:57:39;;;;;;;;;;;17.00;99.90;;;;;;5034344;28;20348;-68
2022/08/19 06:00:08;;;;;;;;;;;17.00;99.90;;;;;;5035235;28;19905;-68
2022/08/19 06:02:35;;;;;;;;;;;17.00;99.90;;;;;;5035794;28;19905;-68
2022/08/19 06:05:01;;;;;;;;;;;17.10;99.90;;;;;;5035112;28;19905;-69
2022/08/19 06:07:28;;;;;;;;;;;17.10;99.90;;;;;;5034415;28;19909;-69
2022/08/19 06:09:54;;;;;;;;;;;17.10;99.90;;;;;;5035099;28;19905;-70
2022/08/19 06:12:20;;;;;;;;;;;17.10;99.90;;;;;;5035004;28;19911;-68
2022/08/19 06:14:46;;;;;;;;;;;17.00;99.90;;;;;;5053083;28;19912;-70
2022/08/19 06:17:12;;;;;;;;;;;17.10;99.90;;;;;;5055376;28;20272;-70
2022/08/19 06:19:39;;;;;;;;;;;17.10;99.90;;;;;;5043851;28;19913;-70
2022/08/19 06:22:06;;;;;;;;;;;17.00;99.90;;;;;;5045923;28;19909;-69
2022/08/19 06:24:31;;;;;;;;;;;17.00;99.90;;;;;;5034770;28;19940;-70
2022/08/19 06:26:57;;;;;;;;;;;17.00;99.90;;;;;;5036703;28;19952;-69
2022/08/19 06:29:24;;;;;;;;;;;17.10;99.90;;;;;;5051065;28;20326;-68
2022/08/19 06:31:51;;;;;;;;;;;17.10;99.90;;;;;;5039873;28;19909;-68
2022/08/19 06:34:17;;;;;;;;;;;17.20;99.90;;;;;;5054456;28;19905;-69
2022/08/19 06:36:48;;;;;;;;;;;17.10;99.90;;;;;;5054522;28;19912;-69
2022/08/19 06:39:15;;;;;;;;;;;17.10;99.90;;;;;;5054755;28;20365;-68
2022/08/19 06:41:42;;;;;;;;;;;17.10;99.90;;;;;;5054584;28;19912;-68
2022/08/19 06:44:08;;;;;;;;;;;17.10;99.90;;;;;;5033160;28;19939;-68
2022/08/19 06:46:34;;;;;;;;;;;17.10;99.90;;;;;;5034350;28;19909;-68
2022/08/19 06:48:59;;;;;;;;;;;17.20;99.90;;;;;;5034843;28;19909;-69
2022/08/19 06:51:25;;;;;;;;;;;17.10;99.90;;;;;;5034404;28;19905;-70
2022/08/19 06:53:52;;;;;;;;;;;17.20;99.90;;;;;;5027962;28;20253;-69
2022/08/19 06:56:20;;;;;;;;;;;17.20;99.90;;;;;;5051367;28;20379;-69
2022/08/19 06:58:46;;;;;;;;;;;17.20;99.90;;;;;;5044617;28;19909;-70
2022/08/19 07:01:12;;;;;;;;;;;17.20;99.90;;;;;;5034526;28;19904;-70
2022/08/19 07:03:38;;;;;;;;;;;17.30;99.90;;;;;;5034104;28;19992;-67
2022/08/19 07:06:05;;;;;;;;;;;17.30;99.90;;;;;;5034178;28;20015;-68
2022/08/19 07:08:32;;;;;;;;;;;17.30;99.90;;;;;;5034088;28;19992;-69
2022/08/19 07:10:57;;;;;;;;;;;17.30;99.90;;;;;;5034093;28;19909;-69
2022/08/19 07:13:23;;;;;;;;;;;17.40;99.90;;;;;;5032694;28;19993;-68
2022/08/19 07:15:50;;;;;;;;;;;17.40;99.90;;;;;;5033974;28;19905;-68
2022/08/19 07:18:16;;;;;;;;;;;17.50;99.90;;;;;;5033904;28;19906;-68
2022/08/19 07:20:42;;;;;;;;;;;17.50;99.90;;;;;;5033825;28;19950;-68
2022/08/19 07:23:08;;;;;;;;;;;17.40;99.90;;;;;;5034488;28;20369;-68
2022/08/19 07:25:35;;;;;;;;;;;17.50;99.90;;;;;;5036668;28;20360;-68
2022/08/19 07:28:02;;;;;;;;;;;17.60;99.90;;;;;;5050686;28;19959;-68
2022/08/19 07:30:28;;;;;;;;;;;17.60;99.90;;;;;;5053696;28;20360;-68
2022/08/19 07:32:53;;;;;;;;;;;17.60;99.90;;;;;;5050428;28;19905;-68
2022/08/19 07:35:19;;;;;;;;;;;17.60;99.90;;;;;;5034338;28;19909;-68
2022/08/19 07:37:45;;;;;;;;;;;17.50;99.90;;;;;;5048485;28;20267;-69
2022/08/19 07:40:10;;;;;;;;;;;17.70;99.90;;;;;;5040964;28;19988;-68
2022/08/19 07:42:36;;;;;;;;;;;17.80;99.90;;;;;;5033925;28;19904;-68
2022/08/19 07:45:02;;;;;;;;;;;17.80;99.90;;;;;;5077678;23;19970;-69
2022/08/19 07:47:28;;;;;;;;;;;17.90;99.90;;;;;;5054596;28;19958;-70
2022/08/19 07:49:53;;;;;;;;;;;18.10;99.90;;;;;;5053956;28;19908;-70
2022/08/19 07:52:19;;;;;;;;;;;18.20;99.90;;;;;;5054587;28;20318;-70
2022/08/19 07:54:45;;;;;;;;;;;18.30;99.90;;;;;;5053813;28;19916;-70
2022/08/19 07:57:11;;;;;;;;;;;18.40;99.90;;;;;;5054386;28;20352;-70
2022/08/19 07:59:36;;;;;;;;;;;18.50;99.90;;;;;;5054039;28;19905;-70
2022/08/19 08:02:02;;;;;;;;;;;18.70;99.90;;;;;;5054075;28;19920;-70
2022/08/19 08:09:56;;;;;;;;;;;19.00;99.90;;;;;;5053439;28;20042;-70
2022/08/19 08:12:25;;;;;;;;;;;19.10;99.90;;;;;;5052963;28;20382;-70
2022/08/19 08:14:53;;;;;;;;;;;19.20;99.90;;;;;;5053700;28;19916;-70
2022/08/19 08:17:21;;;;;;;;;;;19.40;99.90;;;;;;5054447;28;20276;-70
2022/08/19 08:19:46;;;;;;;;;;;19.50;99.90;;;;;;5054146;28;19908;-70
2022/08/19 08:25:09;;;;;;;;;;;19.60;99.90;;;;;;5033940;28;20395;-70
2022/08/19 08:27:36;;;;;;;;;;;19.60;99.90;;;;;;5016022;28;20433;-70
2022/08/19 08:30:03;;;;;;;;;;;19.60;99.90;;;;;;5035738;28;19906;-70
2022/08/19 08:32:28;;;;;;;;;;;19.60;99.90;;;;;;5028390;28;19905;-70
2022/08/19 08:34:53;;;;;;;;;;;19.70;99.90;;;;;;5057426;28;19955;-70
2022/08/19 08:37:19;;;;;;;;;;;19.70;99.90;;;;;;5057554;28;20356;-70
2022/08/19 08:39:44;;;;;;;;;;;19.80;99.90;;;;;;5058958;28;19905;-70
2022/08/19 08:42:30;;;;;;;;;;;19.90;99.90;;;;;;5058767;28;19955;-70
2022/08/19 08:45:05;;;;;;;;;;;20.10;99.90;;;;;;5056389;28;20392;-70
2022/08/19 08:47:38;;;;;;;;;;;20.30;99.90;;;;;;5057144;28;19913;-70
2022/08/19 08:50:06;;;;;;;;;;;20.40;99.90;;;;;;5057360;28;19905;-70
2022/08/19 08:52:36;;;;;;;;;;;20.60;99.90;;;;;;5057015;28;19932;-70
2022/08/19 08:55:08;;;;;;;;;;;20.80;99.90;;;;;;5057129;28;19970;-70
2022/08/19 08:57:50;;;;;;;;;;;21.00;99.90;;;;;;5057459;28;19912;-70
2022/08/19 09:00:26;;;;;;;;;;;21.30;99.90;;;;;;5056858;28;20292;-70
2022/08/19 09:02:53;;;;;;;;;;;21.30;99.90;;;;;;5057355;28;19905;-70
2022/08/19 09:05:21;;;;;;;;;;;21.40;99.90;;;;;;5056793;28;20388;-70
2022/08/19 09:07:53;;;;;;;;;;;21.30;99.90;;;;;;5057062;28;19915;-70
2022/08/19 09:10:31;;;;;;;;;;;21.30;99.90;;;;;;5056831;28;19987;-70
2022/08/19 09:12:56;;;;;;;;;;;21.10;99.90;;;;;;5056702;28;20268;-70
2022/08/19 09:15:26;;;;;;;;;;;21.30;99.90;;;;;;5056634;28;19983;-70
2022/08/19 09:17:52;;;;;;;;;;;21.70;99.90;;;;;;5057366;28;20311;-70
2022/08/19 09:20:19;;;;;;;;;;;22.40;99.90;;;;;;5057083;28;19954;-70
2022/08/19 09:22:45;;;;;;;;;;;22.90;99.90;;;;;;5056430;28;20447;-70
2022/08/19 09:25:12;;;;;;;;;;;23.20;99.90;;;;;;5056324;28;19956;-70
2022/08/19 09:27:39;;;;;;;;;;;23.30;99.90;;;;;;5056154;28;20253;-70
2022/08/19 09:30:05;;;;;;;;;;;23.10;99.90;;;;;;5056243;28;19904;-70
2022/08/19 09:32:30;;;;;;;;;;;22.80;99.90;;;;;;5056224;28;19904;-70
2022/08/19 09:34:57;;;;;;;;;;;22.70;99.90;;;;;;5056250;28;19939;-70
2022/08/19 09:37:24;;;;;;;;;;;22.50;99.90;;;;;;5055839;28;19912;-70
2022/08/19 09:39:49;;;;;;;;;;;22.50;99.90;;;;;;5055946;28;19957;-72
2022/08/19 09:42:15;;;;;;;;;;;22.50;99.90;;;;;;5056118;28;19905;-70
2022/08/19 09:44:41;;;;;;;;;;;22.50;99.90;;;;;;5055791;28;19909;-70
2022/08/19 09:47:07;;;;;;;;;;;22.40;99.90;;;;;;5056708;28;20002;-71
2022/08/19 09:49:33;;;;;;;;;;;22.30;99.90;;;;;;5056029;28;20016;-71
2022/08/19 09:51:58;;;;;;;;;;;22.20;99.90;;;;;;5056227;28;19949;-71
2022/08/19 09:54:24;;;;;;;;;;;22.20;99.90;;;;;;5056138;28;19904;-71
2022/08/19 09:56:50;;;;;;;;;;;22.30;99.90;;;;;;5055898;28;20249;-71
2022/08/19 09:59:15;;;;;;;;;;;22.40;99.90;;;;;;5037952;28;19988;-71
2022/08/19 10:01:41;;;;;;;;;;;22.40;99.90;;;;;;5055776;28;19948;-71
2022/08/19 10:04:09;;;;;;;;;;;22.50;99.90;;;;;;5055620;28;20356;-69
2022/08/19 10:06:36;;;;;;;;;;;22.60;99.90;;;;;;5055765;28;19980;-68
2022/08/19 10:09:04;;;;;;;;;;;22.80;99.90;;;;;;5055461;28;20383;-68
2022/08/19 10:11:29;;;;;;;;;;;22.70;99.90;;;;;;5055464;28;19905;-68
2022/08/19 10:13:55;;;;;;;;;;;22.50;99.90;;;;;;5055441;28;19904;-69
2022/08/19 10:16:22;;;;;;;;;;;22.50;99.90;;;;;;5055118;28;19916;-69
2022/08/19 10:18:47;;;;;;;;;;;22.40;99.90;;;;;;5054935;28;20268;-68
2022/08/19 10:21:17;;;;;;;;;;;22.30;99.90;;;;;;5055212;28;19905;-68
2022/08/19 10:23:47;;;;;;;;;;;22.20;99.90;;;;;;5055227;28;19911;-68
2022/08/19 10:26:13;;;;;;;;;;;22.10;99.90;;;;;;5055252;28;19909;-68
2022/08/19 10:28:39;;;;;;;;;;;21.90;99.90;;;;;;5055452;28;19911;-68
2022/08/19 10:31:09;;;;;;;;;;;21.80;99.90;;;;;;5055244;28;20350;-69
2022/08/19 10:33:35;;;;;;;;;;;21.80;99.90;;;;;;5055007;28;19905;-68
2022/08/19 10:36:02;;;;;;;;;;;21.80;99.90;;;;;;5037089;28;19904;-68
2022/08/19 10:38:28;;;;;;;;;;;21.90;99.90;;;;;;5054730;28;19905;-69
2022/08/19 10:40:54;;;;;;;;;;;21.90;99.90;;;;;;5054963;28;19931;-68
2022/08/19 10:43:20;;;;;;;;;;;21.80;99.90;;;;;;5054856;28;19904;-68
2022/08/19 10:46:00;;;;;;;;;;;21.90;99.90;;;;;;5045484;28;19988;-68
2022/08/19 10:48:25;;;;;;;;;;;22.00;99.90;;;;;;5035151;28;19905;-68
2022/08/19 10:53:35;;;;;;;;;;;22.30;99.90;;;;;;5034680;28;19911;-68
2022/08/19 10:58:44;;;;;;;;;;;22.70;99.90;;;;;;5040247;28;19951;-69
2022/08/19 11:01:10;;;;;;;;;;;23.40;99.90;;;;;;5055955;28;19905;-68
2022/08/19 11:03:35;;;;;;;;;;;23.90;99.90;;;;;;5055231;28;20281;-68
2022/08/19 11:06:02;;;;;;;;;;;24.30;99.90;;;;;;5056017;28;19973;-69
2022/08/19 11:08:28;;;;;;;;;;;24.40;99.90;;;;;;5072002;28;19912;-69
2022/08/19 11:11:00;;;;;;;;;;;24.40;99.90;;;;;;5054409;28;19905;-68
2022/08/19 11:13:27;;;;;;;;;;;24.60;99.90;;;;;;5054966;28;20336;-69
2022/08/19 11:15:59;;;;;;;;;;;24.60;99.90;;;;;;5054376;28;19958;-68
2022/08/19 11:18:25;;;;;;;;;;;24.60;99.90;;;;;;5054247;28;19987;-68
2022/08/19 11:20:51;;;;;;;;;;;24.40;99.90;;;;;;5054020;28;19909;-68
2022/08/19 11:23:16;;;;;;;;;;;24.50;99.90;;;;;;5054485;28;20363;-68
2022/08/19 11:25:42;;;;;;;;;;;24.30;99.90;;;;;;5066035;28;19958;-68
2022/08/19 11:28:07;;;;;;;;;;;24.20;99.90;;;;;;5074428;28;19912;-68
2022/08/19 11:30:33;;;;;;;;;;;24.30;99.90;;;;;;5056283;28;19904;-68
2022/08/19 11:33:00;;;;;;;;;;;24.50;99.90;;;;;;5074717;28;19939;-68
2022/08/19 11:35:26;;;;;;;;;;;24.50;99.90;;;;;;5074126;28;20002;-68
2022/08/19 11:37:51;;;;;;;;;;;24.40;99.90;;;;;;5037711;28;20400;-68
2022/08/19 11:40:17;;;;;;;;;;;24.40;99.90;;;;;;5053906;28;19952;-69
2022/08/19 11:42:55;;;;;;;;;;;24.50;99.90;;;;;;5054095;28;19912;-68
2022/08/19 11:45:20;;;;;;;;;;;24.40;99.90;;;;;;5053857;28;19913;-68
2022/08/19 11:47:47;;;;;;;;;;;24.30;99.90;;;;;;5053796;28;19913;-68
2022/08/19 11:50:13;;;;;;;;;;;24.40;99.90;;;;;;5053866;28;20365;-68
2022/08/19 11:52:38;;;;;;;;;;;24.60;99.90;;;;;;5053968;28;20404;-68
2022/08/19 11:55:05;;;;;;;;;;;24.60;99.90;;;;;;5054064;28;19939;-68
2022/08/19 11:57:30;;;;;;;;;;;24.60;99.90;;;;;;5053900;28;19920;-68
2022/08/19 11:59:56;;;;;;;;;;;24.60;99.90;;;;;;5053849;28;20352;-68
2022/08/19 12:02:23;;;;;;;;;;;24.80;99.90;;;;;;5053814;28;19905;-68
2022/08/19 12:04:48;;;;;;;;;;;24.90;99.90;;;;;;5057407;28;19905;-68
2022/08/19 12:07:14;;;;;;;;;;;24.80;99.90;;;;;;5057967;28;20310;-68
2022/08/19 12:09:40;;;;;;;;;;;24.60;99.90;;;;;;5058092;28;19920;-68
2022/08/19 12:12:05;;;;;;;;;;;24.30;99.90;;;;;;5057663;28;19911;-68
2022/08/19 12:14:31;;;;;;;;;;;24.20;99.90;;;;;;5057242;28;19931;-68
2022/08/19 12:16:57;;;;;;;;;;;24.20;99.90;;;;;;5057577;28;19927;-68
2022/08/19 12:19:24;;;;;;;;;;;24.00;99.90;;;;;;5057658;28;20443;-68
2022/08/19 12:21:50;;;;;;;;;;;23.90;99.90;;;;;;5057529;28;19911;-68
2022/08/19 12:24:20;;;;;;;;;;;23.70;99.90;;;;;;5057834;28;19995;-68
2022/08/19 12:26:45;;;;;;;;;;;23.60;99.90;;;;;;5057513;28;19913;-68
2022/08/19 12:29:11;;;;;;;;;;;23.50;99.90;;;;;;5057360;28;19908;-68
2022/08/19 12:31:36;;;;;;;;;;;23.70;99.90;;;;;;5057202;28;19911;-68
2022/08/19 12:34:02;;;;;;;;;;;24.00;99.90;;;;;;5057140;28;20284;-68
2022/08/19 12:36:27;;;;;;;;;;;24.20;99.90;;;;;;5057156;28;19908;-68
2022/08/19 12:38:53;;;;;;;;;;;24.40;99.90;;;;;;5057181;28;19919;-68
2022/08/19 12:41:20;;;;;;;;;;;24.50;99.90;;;;;;5057672;28;19904;-68
2022/08/19 12:43:47;;;;;;;;;;;24.50;99.90;;;;;;5056904;28;20357;-68
2022/08/19 12:46:14;;;;;;;;;;;24.50;99.90;;;;;;5056893;28;20377;-68
2022/08/19 12:48:44;;;;;;;;;;;24.60;99.90;;;;;;5056981;28;19905;-68
2022/08/19 12:51:11;;;;;;;;;;;24.50;99.90;;;;;;5057021;28;19905;-68
2022/08/19 12:53:37;;;;;;;;;;;25.60;99.90;;;;;;5056775;28;19905;-68
2022/08/19 12:56:03;;;;;;;;;;;26.90;99.90;;;;;;5056398;28;19996;-69
2022/08/19 12:58:29;;;;;;;;;;;28.00;99.90;;;;;;5056662;28;20368;-68
2022/08/19 13:00:54;;;;;;;;;;;28.80;99.90;;;;;;5056971;28;19904;-68
2022/08/19 13:03:22;;;;;;;;;;;29.00;99.90;;;;;;5056570;28;20272;-68
2022/08/19 13:05:47;;;;;;;;;;;28.80;99.90;;;;;;5057216;28;19912;-68
2022/08/19 13:08:13;;;;;;;;;;;28.60;99.90;;;;;;5056597;28;19908;-69
2022/08/19 13:10:38;;;;;;;;;;;29.00;99.90;;;;;;5056486;28;19955;-68
2022/08/19 13:13:09;;;;;;;;;;;29.10;99.90;;;;;;5056173;28;20272;-69
2022/08/19 13:15:35;;;;;;;;;;;28.80;99.90;;;;;;5055752;28;20288;-69
2022/08/19 13:18:01;;;;;;;;;;;28.60;99.90;;;;;;5056384;28;19908;-68
2022/08/19 13:20:27;;;;;;;;;;;27.80;99.90;;;;;;5046711;28;19905;-69
2022/08/19 13:22:53;;;;;;;;;;;27.30;99.90;;;;;;5036981;28;19905;-69
2022/08/19 13:25:19;;;;;;;;;;;27.00;99.90;;;;;;5036669;28;20378;-68
2022/08/19 13:27:46;;;;;;;;;;;27.20;99.90;;;;;;5036218;28;19916;-68
2022/08/19 13:33:14;;;;;;;;;;;27.70;99.90;;;;;;5056454;28;19947;-68
2022/08/19 13:35:40;;;;;;;;;;;28.00;99.90;;;;;;5056059;28;19905;-68
2022/08/19 13:38:06;;;;;;;;;;;28.00;99.90;;;;;;5056138;28;20367;-68
2022/08/19 13:40:33;;;;;;;;;;;28.10;99.90;;;;;;5055903;28;19909;-68
2022/08/19 13:42:59;;;;;;;;;;;28.20;99.90;;;;;;5056252;28;20003;-68
2022/08/19 13:45:25;;;;;;;;;;;27.70;99.90;;;;;;5056289;28;19963;-68
2022/08/19 13:47:53;;;;;;;;;;;27.20;99.90;;;;;;5055823;28;20019;-68
2022/08/19 13:50:25;;;;;;;;;;;26.70;99.90;;;;;;5055779;28;19905;-68
2022/08/19 13:52:50;;;;;;;;;;;25.90;99.90;;;;;;5056151;28;20383;-68
2022/08/19 13:55:16;;;;;;;;;;;25.60;99.90;;;;;;5056036;28;19905;-68
2022/08/19 13:57:41;;;;;;;;;;;25.50;99.90;;;;;;5055670;28;19905;-68
2022/08/19 14:00:10;;;;;;;;;;;25.30;99.90;;;;;;5055508;28;19912;-68
2022/08/19 14:02:37;;;;;;;;;;;25.00;99.90;;;;;;5055208;28;19905;-68
2022/08/19 14:05:03;;;;;;;;;;;25.30;99.90;;;;;;5037592;28;19904;-68
2022/08/19 14:07:28;;;;;;;;;;;26.20;99.90;;;;;;5055430;28;19931;-68
2022/08/19 14:09:54;;;;;;;;;;;26.60;99.90;;;;;;5055336;28;19905;-68
2022/08/19 14:12:20;;;;;;;;;;;27.00;99.90;;;;;;5055364;28;19905;-68
2022/08/19 14:14:46;;;;;;;;;;;27.50;99.90;;;;;;5055120;28;20246;-68
2022/08/19 14:17:11;;;;;;;;;;;28.20;99.90;;;;;;5055354;28;19912;-68
2022/08/19 14:19:37;;;;;;;;;;;29.00;99.90;;;;;;5055539;28;19905;-68
2022/08/19 14:22:03;;;;;;;;;;;29.90;99.90;;;;;;5055065;28;20254;-68
2022/08/19 14:24:28;;;;;;;;;;;29.40;99.90;;;;;;5054909;28;19905;-68
2022/08/19 14:26:54;;;;;;;;;;;28.50;99.90;;;;;;5054594;28;19978;-68
2022/08/19 14:29:19;;;;;;;;;;;28.10;99.90;;;;;;5055263;28;19952;-68
2022/08/19 14:31:45;;;;;;;;;;;28.10;99.90;;;;;;5055542;28;19905;-68
2022/08/19 14:34:12;;;;;;;;;;;27.80;99.90;;;;;;5055019;28;19990;-68
2022/08/19 14:36:38;;;;;;;;;;;27.30;99.90;;;;;;5054836;28;20258;-68
2022/08/19 14:39:04;;;;;;;;;;;26.70;99.90;;;;;;5054923;28;19912;-68